Accueil
METAR-TAF:

METAR-TAF

Aéroports :

Selebi-Phikwe, Botswana

latitude: 22-03-19S, longitude: 027-49-13E, altitude: 892 m

Observation

Le bulletin a été fait il y a 1 heure et 3 minutes, à 08:00 UTC
Vent 6 kt de sud
Température 24°C
Humidité 31%
Pression 1024 hPa
Visibilité 10 km ou plus
pas de nuages en-dessous de 1500 mètres et pas de cumulonimbus.

METAR: FBSP 300800Z 18006KT CAVOK 24/06 Q1024

Heure: 11:03 (09:03 UTC)

Prévision

Le bulletin a été fait il y a 3 heures et 3 minutes, à 06:00 UTC
Prévision valable du 30 à 09 UTC au 30 à 18 UTC
Vent 11 kt de est
Visibilité 10 km ou plus
pas de nuages en-dessous de 1500 mètres et pas de cumulonimbus.

TAF: FBSP 300600Z 3009/3018 09011KT CAVOK

Observations et prévisions météorologiques de plus de 4000 aéroports (messages METAR et TAF).

Les stations disponibles sont représentées par des disques jaunes et rouges sur la carte.

Passer la souris dessus pour voir le nom de la station.

Cliquer dessus pour voir les observations et prévisions météorologiques.

Pour changer de carte: cliquez sur les boutons verts avec une croix noire pour zoomer, sur le bouton vert avec un tiret pour effectuer un zoom arrière, ou sur les flèches vertes pour les cartes adjacentes.


METAR-TAF: